createdAt,value
2022-10-29T00:02:46.787Z,15.69
2022-10-29T00:05:58.592Z,15.63
2022-10-29T00:09:01.597Z,15.79
2022-10-29T00:12:06.614Z,15.92
2022-10-29T00:15:11.325Z,16.06
2022-10-29T00:18:14.277Z,16.08
2022-10-29T00:21:20.987Z,15.99
2022-10-29T00:24:24.551Z,15.93
2022-10-29T00:27:28.881Z,15.88
2022-10-29T00:30:31.846Z,15.81
2022-10-29T00:33:35.419Z,15.58
2022-10-29T00:36:38.381Z,15.48
2022-10-29T00:39:41.629Z,15.56
2022-10-29T00:42:45.896Z,15.52
2022-10-29T00:45:54.180Z,15.39
2022-10-29T00:49:00.988Z,15.37
2022-10-29T00:52:06.041Z,15.24
2022-10-29T00:55:11.105Z,15.10
2022-10-29T00:58:15.479Z,15.07
2022-10-29T01:01:18.694Z,15.07
2022-10-29T01:04:21.983Z,15.03
2022-10-29T01:07:25.932Z,15.08
2022-10-29T01:10:38.903Z,14.93
2022-10-29T01:14:02.787Z,14.76
2022-10-29T01:17:17.768Z,14.58
2022-10-29T01:21:05.464Z,14.42
2022-10-29T01:24:53.573Z,14.33
2022-10-29T01:28:09.807Z,14.21
2022-10-29T01:31:25.462Z,14.20
2022-10-29T01:34:39.723Z,14.18
2022-10-29T01:37:58.318Z,14.10
2022-10-29T01:41:09.008Z,14.02
2022-10-29T01:44:24.718Z,13.95
2022-10-29T01:47:33.838Z,13.88
2022-10-29T01:50:39.930Z,13.81
2022-10-29T01:53:42.986Z,13.71
2022-10-29T01:56:54.619Z,13.69
2022-10-29T02:00:01.703Z,13.62
2022-10-29T02:03:28.397Z,13.54
2022-10-29T02:06:42.978Z,13.47
2022-10-29T02:09:56.009Z,13.44
2022-10-29T02:12:59.598Z,13.42
2022-10-29T02:16:06.712Z,13.43
2022-10-29T02:19:11.056Z,13.43
2022-10-29T02:22:16.424Z,13.39
2022-10-29T02:25:20.003Z,13.37
2022-10-29T02:28:23.021Z,13.41
2022-10-29T02:31:26.582Z,13.38
2022-10-29T02:34:30.870Z,13.32
2022-10-29T02:37:33.873Z,13.31
2022-10-29T02:40:36.856Z,13.33
2022-10-29T02:43:40.077Z,13.44
2022-10-29T02:46:43.018Z,13.63
2022-10-29T02:49:47.380Z,13.64
2022-10-29T02:52:50.351Z,13.57
2022-10-29T02:55:53.314Z,13.53
2022-10-29T02:58:56.351Z,13.51
2022-10-29T03:01:59.542Z,13.47
2022-10-29T03:05:06.581Z,13.48
2022-10-29T03:08:09.626Z,13.38
2022-10-29T03:11:13.147Z,13.39
2022-10-29T03:14:16.251Z,13.38
2022-10-29T03:17:19.215Z,13.31
2022-10-29T03:20:23.527Z,13.28
2022-10-29T03:23:26.602Z,13.25
2022-10-29T03:26:29.667Z,13.21
2022-10-29T03:29:32.699Z,13.08
2022-10-29T03:32:35.653Z,13.08
2022-10-29T03:35:40.185Z,13.08
2022-10-29T03:38:43.406Z,13.05
2022-10-29T03:41:46.464Z,12.99
2022-10-29T03:44:49.456Z,13.00
2022-10-29T03:47:53.297Z,13.00
2022-10-29T03:51:00.359Z,13.05
2022-10-29T03:54:03.547Z,13.04
2022-10-29T03:57:06.513Z,13.03
2022-10-29T04:00:11.935Z,13.01
2022-10-29T04:03:18.682Z,12.96
2022-10-29T04:06:23.249Z,12.98
2022-10-29T04:09:26.261Z,12.95
2022-10-29T04:12:29.263Z,12.98
2022-10-29T04:15:32.511Z,12.98
2022-10-29T04:18:35.846Z,12.94
2022-10-29T04:28:43.726Z,12.89
2022-10-29T04:31:47.219Z,12.85
2022-10-29T04:34:50.218Z,12.87
2022-10-29T04:37:55.471Z,12.82
2022-10-29T04:41:00.302Z,12.82
2022-10-29T04:44:05.402Z,12.79
2022-10-29T04:47:09.842Z,12.79
2022-10-29T04:50:15.966Z,12.79
2022-10-29T04:53:21.336Z,12.78
2022-10-29T04:56:25.098Z,12.78
2022-10-29T04:59:28.165Z,12.79
2022-10-29T05:02:31.184Z,12.80
2022-10-29T05:05:34.774Z,12.83
2022-10-29T05:08:39.112Z,12.89
2022-10-29T05:11:42.060Z,12.87
2022-10-29T05:14:45.297Z,12.84
2022-10-29T05:17:48.455Z,12.84
2022-10-29T05:20:55.124Z,12.80
2022-10-29T05:23:59.646Z,12.82
2022-10-29T05:27:03.383Z,12.82
2022-10-29T05:30:08.319Z,12.80
2022-10-29T05:33:13.061Z,12.74
2022-10-29T05:36:16.026Z,12.76
2022-10-29T05:39:20.385Z,12.74
2022-10-29T05:42:23.679Z,12.76
2022-10-29T05:45:26.935Z,12.70
2022-10-29T05:48:29.891Z,12.77
2022-10-29T05:51:33.090Z,12.82
2022-10-29T05:54:37.357Z,12.66
2022-10-29T05:57:40.334Z,12.65
2022-10-29T06:00:45.747Z,12.68
2022-10-29T06:03:48.867Z,12.62
2022-10-29T06:06:51.907Z,12.64
2022-10-29T06:09:56.285Z,12.72
2022-10-29T06:12:59.272Z,12.76
2022-10-29T06:16:02.375Z,12.72
2022-10-29T06:19:05.566Z,12.86
2022-10-29T06:22:08.863Z,12.89
2022-10-29T06:25:13.258Z,12.86
2022-10-29T06:28:16.396Z,12.83
2022-10-29T06:31:19.414Z,12.86
2022-10-29T06:34:22.366Z,12.91
2022-10-29T06:37:25.282Z,12.89
2022-10-29T06:40:29.628Z,12.89
2022-10-29T06:43:32.571Z,12.93
2022-10-29T06:46:35.780Z,12.97
2022-10-29T06:49:38.708Z,13.13
2022-10-29T06:52:41.646Z,13.16
2022-10-29T06:55:46.111Z,13.15
2022-10-29T06:58:49.118Z,13.22
2022-10-29T07:01:52.486Z,13.29
2022-10-29T07:04:55.482Z,13.40
2022-10-29T07:07:59.962Z,13.49
2022-10-29T07:11:04.590Z,13.63
2022-10-29T07:14:09.694Z,13.68
2022-10-29T07:17:12.694Z,13.74
2022-10-29T07:20:15.834Z,13.81
2022-10-29T07:23:18.867Z,13.84
2022-10-29T07:26:23.185Z,13.88
2022-10-29T07:29:26.109Z,13.97
2022-10-29T07:32:29.057Z,14.13
2022-10-29T07:35:32.293Z,14.26
2022-10-29T07:38:35.266Z,14.28
2022-10-29T07:41:39.552Z,14.34
2022-10-29T07:44:42.543Z,14.40
2022-10-29T07:47:45.817Z,14.46
2022-10-29T07:50:50.006Z,14.53
2022-10-29T07:53:52.969Z,14.61
2022-10-29T07:56:57.315Z,14.71
2022-10-29T08:00:00.821Z,14.83
2022-10-29T08:03:04.813Z,14.96
2022-10-29T08:06:08.209Z,15.08
2022-10-29T08:09:12.002Z,15.10
2022-10-29T08:12:16.294Z,15.27
2022-10-29T08:15:20.059Z,15.43
2022-10-29T08:18:23.057Z,15.43
2022-10-29T08:21:25.996Z,15.52
2022-10-29T08:24:28.961Z,15.65
2022-10-29T08:27:33.266Z,15.73
2022-10-29T08:30:36.582Z,15.85
2022-10-29T08:33:39.560Z,15.97
2022-10-29T08:36:42.710Z,16.07
2022-10-29T08:39:45.671Z,16.12
2022-10-29T08:43:08.966Z,16.21
2022-10-29T08:46:20.390Z,16.32
2022-10-29T08:49:29.183Z,16.44
2022-10-29T08:52:38.057Z,16.54
2022-10-29T08:55:41.049Z,16.63
2022-10-29T08:58:55.371Z,16.72
2022-10-29T09:01:58.456Z,16.80
2022-10-29T09:05:02.604Z,16.85
2022-10-29T09:08:25.808Z,16.91
2022-10-29T09:11:49.267Z,17.00
2022-10-29T09:15:18.841Z,17.08
2022-10-29T09:18:33.874Z,17.21
2022-10-29T09:21:46.674Z,17.29
2022-10-29T09:24:59.483Z,17.38
2022-10-29T09:28:21.632Z,17.46
2022-10-29T09:31:35.825Z,17.59
2022-10-29T09:34:44.905Z,17.66
2022-10-29T09:37:53.638Z,17.77
2022-10-29T09:40:59.216Z,17.86
2022-10-29T09:44:08.924Z,18.03
2022-10-29T09:47:27.316Z,18.14
2022-10-29T09:50:39.126Z,18.24
2022-10-29T09:53:42.108Z,18.31
2022-10-29T09:56:51.830Z,18.33
2022-10-29T10:00:02.354Z,18.34
2022-10-29T10:03:22.763Z,18.31
2022-10-29T10:06:25.787Z,18.36
2022-10-29T10:09:28.728Z,18.38
2022-10-29T10:12:47.768Z,18.45
2022-10-29T10:15:54.523Z,18.39
2022-10-29T10:18:58.999Z,18.44
2022-10-29T10:22:05.144Z,18.29
2022-10-29T10:25:34.664Z,18.28
2022-10-29T10:28:37.667Z,18.30
2022-10-29T10:31:41.325Z,18.43
2022-10-29T10:34:45.619Z,18.62
2022-10-29T10:37:48.603Z,18.80
2022-10-29T10:40:57.318Z,19.01
2022-10-29T10:44:02.509Z,18.91
2022-10-29T10:47:08.234Z,18.98
2022-10-29T10:50:19.753Z,19.04
2022-10-29T10:53:24.320Z,19.38
2022-10-29T10:56:27.315Z,19.56
2022-10-29T10:59:48.955Z,19.44
2022-10-29T11:02:59.101Z,19.51
2022-10-29T11:06:08.295Z,19.54
2022-10-29T11:09:23.189Z,19.79
2022-10-29T11:12:33.472Z,19.76
2022-10-29T11:15:40.418Z,19.98
2022-10-29T11:18:49.959Z,19.78
2022-10-29T11:22:04.531Z,19.96
2022-10-29T11:25:16.351Z,20.09
2022-10-29T11:28:25.881Z,20.44
2022-10-29T11:31:37.453Z,20.40
2022-10-29T11:34:52.746Z,19.94
2022-10-29T11:38:02.253Z,19.99
2022-10-29T11:41:08.863Z,20.02
2022-10-29T11:44:15.540Z,20.12
2022-10-29T11:47:37.307Z,20.21
2022-10-29T11:50:49.679Z,20.33
2022-10-29T11:54:10.359Z,20.02
2022-10-29T11:57:20.262Z,20.10
2022-10-29T12:00:24.695Z,20.33
2022-10-29T12:03:56.477Z,20.60
2022-10-29T12:07:13.370Z,20.60
2022-10-29T12:10:35.179Z,20.69
2022-10-29T12:13:54.725Z,20.90
2022-10-29T12:17:05.814Z,21.16
2022-10-29T12:20:22.080Z,21.20
2022-10-29T12:23:38.094Z,20.99
2022-10-29T12:26:48.307Z,20.84
2022-10-29T12:29:59.158Z,21.00
2022-10-29T12:33:11.507Z,21.26
2022-10-29T12:36:23.832Z,21.17
2022-10-29T12:39:30.825Z,21.06
2022-10-29T12:42:35.548Z,20.80
2022-10-29T12:46:14.388Z,20.94
2022-10-29T12:49:18.853Z,20.90
2022-10-29T12:52:32.097Z,20.99
2022-10-29T12:55:36.975Z,21.06
2022-10-29T12:58:50.300Z,21.10
2022-10-29T13:05:35.478Z,21.26
2022-10-29T13:08:39.775Z,21.32
2022-10-29T13:11:49.033Z,21.38
2022-10-29T13:14:57.026Z,21.47
2022-10-29T13:18:07.016Z,21.59
2022-10-29T13:21:10.376Z,21.64
2022-10-29T13:24:17.818Z,21.81
2022-10-29T13:27:36.888Z,21.65
2022-10-29T13:30:42.883Z,21.72
2022-10-29T13:33:52.423Z,21.73
2022-10-29T13:37:34.279Z,21.41
2022-10-29T13:41:13.115Z,21.14
2022-10-29T13:44:21.764Z,21.23
2022-10-29T13:47:26.890Z,21.21
2022-10-29T13:50:30.116Z,21.13
2022-10-29T13:53:40.375Z,21.00
2022-10-29T13:56:50.511Z,20.91
2022-10-29T13:59:59.372Z,20.89
2022-10-29T14:03:13.981Z,20.87
2022-10-29T14:06:23.717Z,20.98
2022-10-29T14:09:37.849Z,20.95
2022-10-29T14:12:42.840Z,20.93
2022-10-29T14:16:02.134Z,20.96
2022-10-29T14:19:20.332Z,20.81
2022-10-29T14:22:36.430Z,20.70
2022-10-29T14:25:39.516Z,20.68
2022-10-29T14:28:44.622Z,20.50
2022-10-29T14:31:47.994Z,20.35
2022-10-29T14:34:52.853Z,20.14
2022-10-29T14:37:56.911Z,20.00
2022-10-29T14:41:00.315Z,19.88
2022-10-29T14:44:09.550Z,19.72
2022-10-29T14:47:27.591Z,19.51
2022-10-29T14:50:33.417Z,19.41
2022-10-29T14:53:39.545Z,19.39
2022-10-29T14:56:43.007Z,19.38
2022-10-29T14:59:50.223Z,19.30
2022-10-29T15:02:56.168Z,19.25
2022-10-29T15:06:17.146Z,19.22
2022-10-29T15:09:28.038Z,19.19
2022-10-29T15:12:37.441Z,19.22
2022-10-29T15:15:41.063Z,19.11
2022-10-29T15:18:49.706Z,19.12
2022-10-29T15:21:54.483Z,19.03
2022-10-29T15:24:57.828Z,18.86
2022-10-29T15:28:02.503Z,18.72
2022-10-29T15:31:06.306Z,18.71
2022-10-29T15:34:11.623Z,18.65
2022-10-29T15:37:25.466Z,18.52
2022-10-29T15:40:28.490Z,18.46
2022-10-29T15:43:31.547Z,18.32
2022-10-29T15:46:49.767Z,18.23
2022-10-29T15:49:53.051Z,18.16
2022-10-29T15:53:01.754Z,18.06
2022-10-29T15:56:05.537Z,17.97
2022-10-29T15:59:13.352Z,17.97
2022-10-29T16:02:18.229Z,17.90
2022-10-29T16:05:21.686Z,17.93
2022-10-29T16:08:30.043Z,17.88
2022-10-29T16:11:36.059Z,17.82
2022-10-29T16:14:39.070Z,17.75
2022-10-29T16:17:42.253Z,17.72
2022-10-29T16:20:45.763Z,17.71
2022-10-29T16:23:50.685Z,17.68
2022-10-29T16:26:53.665Z,17.65
2022-10-29T16:29:56.608Z,17.65
2022-10-29T16:33:01.374Z,17.64
2022-10-29T16:36:04.690Z,17.61
2022-10-29T16:39:09.263Z,17.59
2022-10-29T16:42:29.936Z,17.54
2022-10-29T16:45:33.325Z,17.41
2022-10-29T16:48:36.416Z,17.35
2022-10-29T16:51:39.352Z,17.29
2022-10-29T16:54:43.672Z,17.25
2022-10-29T16:57:46.638Z,17.25
2022-10-29T17:00:49.981Z,17.24
2022-10-29T17:03:53.460Z,17.16
2022-10-29T17:06:56.443Z,17.11
2022-10-29T17:10:00.949Z,17.10
2022-10-29T17:13:04.328Z,17.07
2022-10-29T17:16:08.722Z,17.06
2022-10-29T17:19:11.776Z,17.06
2022-10-29T17:22:16.093Z,17.00
2022-10-29T17:25:20.554Z,16.98
2022-10-29T17:28:24.912Z,16.94
2022-10-29T17:31:28.058Z,16.90
2022-10-29T17:34:30.996Z,16.84
2022-10-29T17:37:34.077Z,16.78
2022-10-29T17:40:38.614Z,16.72
2022-10-29T17:43:41.664Z,16.70
2022-10-29T17:46:44.616Z,16.64
2022-10-29T17:49:49.123Z,16.61
2022-10-29T17:52:53.218Z,16.58
2022-10-29T17:56:00.434Z,16.54
2022-10-29T17:59:03.516Z,16.57
2022-10-29T18:02:06.617Z,16.55
2022-10-29T18:05:10.423Z,16.48
2022-10-29T18:08:13.429Z,16.45
2022-10-29T18:11:20.188Z,16.43
2022-10-29T18:14:23.439Z,16.40
2022-10-29T18:17:26.468Z,16.34
2022-10-29T18:20:29.498Z,16.28
2022-10-29T18:23:32.551Z,16.25
2022-10-29T18:26:37.984Z,16.18
2022-10-29T18:29:41.038Z,16.16
2022-10-29T18:32:44.019Z,16.18
2022-10-29T18:35:47.036Z,16.11
2022-10-29T18:38:51.804Z,16.09
2022-10-29T18:41:56.947Z,16.05
2022-10-29T18:44:59.925Z,16.03
2022-10-29T18:48:02.936Z,15.96
2022-10-29T18:51:08.653Z,15.89
2022-10-29T18:54:14.493Z,15.83
2022-10-29T18:57:19.503Z,15.83
2022-10-29T19:00:23.000Z,15.84
2022-10-29T19:06:36.541Z,15.66
2022-10-29T19:09:39.482Z,15.63
2022-10-29T19:12:43.809Z,15.62
2022-10-29T19:15:46.789Z,15.66
2022-10-29T19:18:55.031Z,15.70
2022-10-29T19:21:58.082Z,15.68
2022-10-29T19:25:01.038Z,15.65
2022-10-29T19:28:05.946Z,15.66
2022-10-29T19:31:12.703Z,15.67
2022-10-29T19:34:16.073Z,15.60
2022-10-29T19:37:19.006Z,15.54
2022-10-29T19:40:22.122Z,15.51
2022-10-29T19:43:28.541Z,15.48
2022-10-29T19:46:31.871Z,15.43
2022-10-29T19:49:35.075Z,15.37
2022-10-29T19:52:38.085Z,15.35
2022-10-29T19:55:41.361Z,15.31
2022-10-29T19:58:45.661Z,15.26
2022-10-29T20:01:48.923Z,15.21
2022-10-29T20:04:52.095Z,15.19
2022-10-29T20:07:56.556Z,15.20
2022-10-29T20:11:01.150Z,15.18
2022-10-29T20:14:05.522Z,15.16
2022-10-29T20:17:08.518Z,15.12
2022-10-29T20:20:16.824Z,15.14
2022-10-29T20:23:20.394Z,15.12
2022-10-29T20:26:23.513Z,15.09
2022-10-29T20:29:27.758Z,15.09
2022-10-29T20:32:30.803Z,15.07
2022-10-29T20:35:33.747Z,15.04
2022-10-29T20:38:37.598Z,15.10
2022-10-29T20:41:40.747Z,15.09
2022-10-29T20:44:45.890Z,15.10
2022-10-29T20:47:48.920Z,15.08
2022-10-29T20:50:52.756Z,15.05
2022-10-29T20:53:56.202Z,15.06
2022-10-29T20:56:59.329Z,15.05
2022-10-29T21:00:03.921Z,15.03
2022-10-29T21:03:07.384Z,15.02
2022-10-29T21:06:16.910Z,15.01
2022-10-29T21:09:20.607Z,15.00
2022-10-29T21:12:23.538Z,14.99
2022-10-29T21:15:27.856Z,14.97
2022-10-29T21:18:30.842Z,14.97
2022-10-29T21:21:34.055Z,14.97
2022-10-29T21:24:38.328Z,14.92
2022-10-29T21:27:43.492Z,14.95
2022-10-29T21:30:48.558Z,14.94
2022-10-29T21:33:51.933Z,14.91
2022-10-29T21:36:54.911Z,14.90
2022-10-29T21:40:03.267Z,14.90
2022-10-29T21:43:09.154Z,14.89
2022-10-29T21:46:13.613Z,14.90
2022-10-29T21:49:16.585Z,14.83
2022-10-29T21:52:19.564Z,14.76
2022-10-29T21:55:22.588Z,14.80
2022-10-29T21:58:25.691Z,14.77
2022-10-29T22:01:30.194Z,14.71
2022-10-29T22:04:33.335Z,14.67
2022-10-29T22:07:36.809Z,14.66
2022-10-29T22:10:39.763Z,14.64
2022-10-29T22:13:42.816Z,14.60
2022-10-29T22:16:47.959Z,14.59
2022-10-29T22:19:51.387Z,14.59
2022-10-29T22:22:54.542Z,14.64
2022-10-29T22:25:57.662Z,14.65
2022-10-29T22:29:00.731Z,14.63
2022-10-29T22:32:07.815Z,14.61
2022-10-29T22:35:10.798Z,14.59
2022-10-29T22:38:13.899Z,14.56
2022-10-29T22:41:18.554Z,14.59
2022-10-29T22:44:21.592Z,14.59
2022-10-29T22:47:25.980Z,14.66
2022-10-29T22:50:29.277Z,14.65
2022-10-29T22:53:32.775Z,14.67
2022-10-29T22:56:37.852Z,14.59
2022-10-29T22:59:40.997Z,14.56
2022-10-29T23:02:45.361Z,14.54
2022-10-29T23:05:57.907Z,14.53
2022-10-29T23:09:01.721Z,14.51
2022-10-29T23:12:05.945Z,14.51
2022-10-29T23:15:09.420Z,14.52
2022-10-29T23:18:13.857Z,14.55
2022-10-29T23:21:17.057Z,14.56
2022-10-29T23:24:19.989Z,14.54
2022-10-29T23:27:22.947Z,14.45
2022-10-29T23:30:26.210Z,14.40
2022-10-29T23:33:32.548Z,14.37
2022-10-29T23:36:35.862Z,14.34
2022-10-29T23:39:38.862Z,14.32
2022-10-29T23:42:41.893Z,14.29
2022-10-29T23:45:45.121Z,14.24
2022-10-29T23:48:49.465Z,14.18
2022-10-29T23:51:52.650Z,14.13
2022-10-29T23:54:55.751Z,14.05
2022-10-29T23:57:58.847Z,14.04
